SPQU/AQP METAR and TAF weather

Enter ICAO airport designator
Station Type Date Time Source
SPQU METAR 2021/10/22 18:00 UTC NOAA

SPQU 221800Z 26010KT 220V290 CAVOK 20/M08 Q1027 NOSIG RMK PP000


Station Type Date Time Source
SPQU Decoded METAR 2021/10/22 18:00 UTC NOAA

Arequipa, Peru (SPQU) 16-19S 071-33W 2539M
Oct 22, 2021 - 02:00 PM EDT / 2021.10.22 1800 UTC
Wind: from the W (260 degrees) at 12 MPH (10 KT) (direction variable):0
Visibility: greater than 7 mile(s):0
Temperature: 68 F (20 C)
Dew Point: 17 F (-8 C)
Relative Humidity: 14%
Pressure (altimeter): 30.33 in. Hg (1027 hPa)
ob: SPQU 221800Z 26010KT 220V290 CAVOK 20/M08 Q1027 NOSIG RMK PP000
cycle: 18

Station Type Date Time Source
SPQU TAF 2021/10/22 18:33 UTC NOAA

TAF SPQU 221700Z 2218/2318 24010KT CAVOK TX21/2219Z TN07/2311Z
BECMG 2222/2224 01005KT
BECMG 2315/2317 25010KT

Example: see airport list